createdAt,value
2022-08-22T00:00:52.602Z,3.63
2022-08-22T00:02:55.205Z,3.15
2022-08-22T00:03:03.075Z,3.17
2022-08-22T00:03:10.288Z,3.33
2022-08-22T00:05:45.868Z,4.65
2022-08-22T00:08:12.177Z,3.10
2022-08-22T00:10:38.483Z,3.17
2022-08-22T00:13:04.773Z,3.90
2022-08-22T00:15:42.581Z,3.15
2022-08-22T00:18:10.098Z,3.47
2022-08-22T00:20:36.394Z,3.38
2022-08-22T00:23:02.694Z,3.08
2022-08-22T00:25:29.512Z,3.65
2022-08-22T00:27:55.888Z,3.05
2022-08-22T00:30:22.406Z,3.00
2022-08-22T00:32:48.712Z,3.15
2022-08-22T00:35:15.137Z,3.13
2022-08-22T00:37:41.441Z,3.25
2022-08-22T00:40:07.783Z,2.92
2022-08-22T00:42:34.082Z,2.90
2022-08-22T00:45:00.364Z,3.15
2022-08-22T00:47:26.677Z,3.63
2022-08-22T00:49:52.983Z,2.95
2022-08-22T00:52:19.275Z,3.22
2022-08-22T00:54:45.572Z,3.03
2022-08-22T00:57:11.866Z,2.72
2022-08-22T00:59:38.176Z,3.55
2022-08-22T01:02:04.870Z,2.92
2022-08-22T01:04:31.433Z,2.72
2022-08-22T01:06:57.717Z,3.47
2022-08-22T01:09:24.006Z,3.53
2022-08-22T01:11:50.302Z,3.47
2022-08-22T01:14:16.605Z,3.30
2022-08-22T01:16:42.893Z,2.78
2022-08-22T01:19:09.250Z,3.35
2022-08-22T01:21:35.545Z,3.15
2022-08-22T01:24:01.842Z,3.80
2022-08-22T01:26:28.602Z,4.13
2022-08-22T01:28:54.934Z,4.30
2022-08-22T01:31:21.546Z,3.33
2022-08-22T01:33:47.847Z,3.42
2022-08-22T01:36:14.140Z,2.92
2022-08-22T01:38:40.442Z,4.07
2022-08-22T01:41:06.736Z,3.38
2022-08-22T01:43:58.712Z,2.95
2022-08-22T01:46:23.130Z,3.13
2022-08-22T01:48:49.450Z,3.35
2022-08-22T01:51:15.732Z,2.97
2022-08-22T01:53:42.045Z,3.10
2022-08-22T01:56:08.338Z,2.72
2022-08-22T01:58:34.665Z,3.83
2022-08-22T02:01:01.375Z,3.15
2022-08-22T02:03:27.710Z,3.30
2022-08-22T02:05:54.009Z,3.00
2022-08-22T02:08:20.434Z,3.42
2022-08-22T02:10:46.878Z,3.33
2022-08-22T02:13:13.175Z,3.20
2022-08-22T02:15:39.747Z,3.50
2022-08-22T02:18:06.131Z,3.03
2022-08-22T02:20:32.443Z,3.13
2022-08-22T02:22:59.693Z,3.03
2022-08-22T02:25:26.011Z,3.05
2022-08-22T02:27:52.345Z,3.60
2022-08-22T02:30:18.701Z,2.80
2022-08-22T02:32:45.236Z,3.38
2022-08-22T02:35:11.533Z,3.45
2022-08-22T02:37:37.830Z,3.70
2022-08-22T02:40:05.210Z,3.13
2022-08-22T02:42:31.561Z,3.53
2022-08-22T02:44:57.856Z,3.05
2022-08-22T02:47:24.143Z,2.80
2022-08-22T02:49:50.430Z,3.90
2022-08-22T02:52:17.992Z,3.00
2022-08-22T02:54:44.290Z,3.08
2022-08-22T02:57:14.081Z,3.22
2022-08-22T02:59:40.866Z,3.55
2022-08-22T03:02:07.364Z,3.30
2022-08-22T03:04:33.692Z,3.22
2022-08-22T03:07:00.000Z,3.15
2022-08-22T03:09:26.294Z,3.78
2022-08-22T03:11:52.605Z,3.28
2022-08-22T03:14:18.886Z,2.83
2022-08-22T03:16:45.185Z,3.70
2022-08-22T03:19:11.522Z,3.90
2022-08-22T03:21:44.954Z,3.45
2022-08-22T03:24:11.251Z,3.38
2022-08-22T03:26:37.564Z,2.83
2022-08-22T03:29:03.895Z,3.58
2022-08-22T03:31:30.199Z,3.40
2022-08-22T03:33:56.519Z,4.05
2022-08-22T03:36:22.834Z,3.25
2022-08-22T03:38:49.116Z,3.65
2022-08-22T03:41:15.435Z,3.58
2022-08-22T03:43:41.852Z,3.13
2022-08-22T03:46:08.172Z,3.88
2022-08-22T03:48:34.871Z,3.38
2022-08-22T03:53:28.736Z,3.50
2022-08-22T03:55:55.066Z,3.47
2022-08-22T03:58:27.728Z,3.20
2022-08-22T04:00:55.998Z,4.07
2022-08-22T04:03:23.067Z,3.47
2022-08-22T04:05:49.388Z,3.35
2022-08-22T04:08:24.281Z,3.55
2022-08-22T04:10:52.418Z,2.92
2022-08-22T04:13:18.721Z,3.17
2022-08-22T04:15:52.642Z,3.47
2022-08-22T04:18:18.935Z,3.97
2022-08-22T04:20:45.255Z,3.60
2022-08-22T04:23:11.572Z,3.63
2022-08-22T04:25:38.761Z,3.30
2022-08-22T04:28:05.063Z,3.60
2022-08-22T04:30:31.526Z,3.88
2022-08-22T04:32:57.822Z,4.40
2022-08-22T04:35:24.125Z,3.90
2022-08-22T04:37:50.920Z,3.38
2022-08-22T04:40:17.310Z,4.00
2022-08-22T04:42:43.639Z,4.35
2022-08-22T04:45:09.933Z,4.28
2022-08-22T04:47:36.664Z,3.67
2022-08-22T04:50:02.946Z,4.10
2022-08-22T04:52:29.397Z,3.95
2022-08-22T04:54:56.023Z,3.33
2022-08-22T04:57:22.636Z,3.50
2022-08-22T04:59:48.958Z,4.47
2022-08-22T05:02:17.486Z,3.67
2022-08-22T05:04:43.797Z,4.07
2022-08-22T05:07:10.109Z,3.83
2022-08-22T05:09:36.412Z,3.50
2022-08-22T05:12:02.829Z,3.40
2022-08-22T05:14:29.115Z,3.80
2022-08-22T05:16:55.411Z,3.70
2022-08-22T05:19:29.692Z,3.92
2022-08-22T05:21:57.592Z,3.33
2022-08-22T05:24:23.927Z,3.60
2022-08-22T05:26:54.783Z,3.40
2022-08-22T05:29:21.154Z,4.10
2022-08-22T05:31:47.448Z,4.03
2022-08-22T05:34:13.781Z,4.00
2022-08-22T05:36:40.080Z,3.67
2022-08-22T05:39:06.393Z,3.30
2022-08-22T05:41:32.701Z,3.90
2022-08-22T05:44:00.029Z,3.80
2022-08-22T05:46:27.357Z,4.43
2022-08-22T05:48:53.686Z,3.55
2022-08-22T05:51:21.495Z,3.58
2022-08-22T05:53:47.778Z,4.88
2022-08-22T05:56:14.104Z,4.47
2022-08-22T05:58:43.247Z,5.13
2022-08-22T06:01:09.542Z,4.53
2022-08-22T06:03:36.453Z,3.85
2022-08-22T06:06:03.315Z,4.50
2022-08-22T06:08:30.066Z,3.83
2022-08-22T06:10:56.428Z,3.90
2022-08-22T06:13:24.605Z,5.03
2022-08-22T06:15:51.809Z,5.80
2022-08-22T06:18:18.650Z,4.03
2022-08-22T06:20:45.319Z,3.80
2022-08-22T06:23:11.630Z,4.32
2022-08-22T06:25:37.930Z,4.38
2022-08-22T06:28:04.330Z,3.47
2022-08-22T06:30:31.609Z,4.40
2022-08-22T06:32:59.166Z,3.90
2022-08-22T06:35:26.603Z,4.30
2022-08-22T06:37:52.960Z,4.15
2022-08-22T06:40:19.303Z,4.30
2022-08-22T06:42:45.691Z,4.18
2022-08-22T06:45:11.982Z,4.25
2022-08-22T06:47:38.286Z,3.88
2022-08-22T06:50:06.065Z,5.07
2022-08-22T06:52:32.360Z,4.13
2022-08-22T06:55:00.127Z,3.97
2022-08-22T06:57:26.670Z,4.03
2022-08-22T06:59:52.979Z,5.18
2022-08-22T07:02:19.297Z,4.75
2022-08-22T07:04:45.634Z,4.55
2022-08-22T07:07:11.967Z,5.22
2022-08-22T07:09:38.271Z,4.05
2022-08-22T07:12:04.566Z,4.10
2022-08-22T07:14:31.134Z,4.82
2022-08-22T07:16:57.428Z,4.75
2022-08-22T07:19:23.735Z,4.47
2022-08-22T07:21:50.023Z,4.50
2022-08-22T07:24:16.354Z,4.50
2022-08-22T07:26:42.662Z,4.45
2022-08-22T07:29:11.395Z,4.70
2022-08-22T07:31:37.933Z,5.18
2022-08-22T07:34:04.732Z,4.72
2022-08-22T07:36:31.934Z,4.22
2022-08-22T07:38:58.945Z,5.25
2022-08-22T07:41:25.259Z,4.75
2022-08-22T07:43:51.549Z,4.90
2022-08-22T07:46:18.184Z,5.10
2022-08-22T07:49:05.957Z,5.10
2022-08-22T07:51:30.793Z,5.70
2022-08-22T07:54:00.357Z,4.75
2022-08-22T07:56:27.199Z,4.70
2022-08-22T07:58:53.502Z,4.95
2022-08-22T08:01:19.943Z,4.93
2022-08-22T08:03:46.311Z,4.57
2022-08-22T08:06:13.201Z,5.28
2022-08-22T08:08:39.497Z,4.72
2022-08-22T08:11:05.810Z,5.00
2022-08-22T08:13:32.110Z,5.60
2022-08-22T08:15:58.410Z,5.45
2022-08-22T08:18:25.824Z,4.75
2022-08-22T08:20:52.358Z,4.63
2022-08-22T08:23:22.257Z,4.95
2022-08-22T08:25:53.449Z,4.80
2022-08-22T08:28:35.225Z,4.60
2022-08-22T08:31:01.590Z,4.70
2022-08-22T08:33:28.192Z,5.20
2022-08-22T08:36:02.024Z,4.85
2022-08-22T08:38:31.203Z,5.25
2022-08-22T08:40:57.531Z,5.22
2022-08-22T08:43:27.472Z,4.38
2022-08-22T08:45:56.409Z,4.13
2022-08-22T08:48:25.561Z,4.90
2022-08-22T08:50:52.294Z,3.55
2022-08-22T08:53:18.604Z,4.15
2022-08-22T08:55:48.171Z,4.00
2022-08-22T08:58:17.779Z,2.83
2022-08-22T09:00:44.314Z,2.28
2022-08-22T09:03:10.648Z,2.15
2022-08-22T09:05:41.897Z,2.08
2022-08-22T09:08:11.822Z,2.25
2022-08-22T09:10:38.527Z,2.50
2022-08-22T09:13:11.425Z,2.33
2022-08-22T09:15:39.036Z,2.35
2022-08-22T09:18:05.323Z,2.60
2022-08-22T09:20:32.839Z,2.60
2022-08-22T09:22:59.162Z,2.53
2022-08-22T09:25:25.547Z,2.40
2022-08-22T09:27:51.864Z,2.40
2022-08-22T09:30:18.699Z,2.22
2022-08-22T09:32:54.591Z,2.22
2022-08-22T09:35:22.382Z,2.50
2022-08-22T09:37:49.230Z,2.70
2022-08-22T09:40:20.438Z,2.25
2022-08-22T09:42:49.632Z,2.38
2022-08-22T09:45:16.035Z,2.50
2022-08-22T09:47:42.314Z,2.63
2022-08-22T09:50:08.643Z,2.45
2022-08-22T09:52:36.165Z,2.58
2022-08-22T09:55:03.236Z,2.50
2022-08-22T09:57:34.308Z,2.75
2022-08-22T10:00:00.610Z,3.72
2022-08-22T10:04:56.539Z,1.95
2022-08-22T10:07:24.810Z,2.10
2022-08-22T10:09:54.915Z,1.92
2022-08-22T10:12:24.814Z,2.25
2022-08-22T10:14:51.306Z,1.98
2022-08-22T10:17:21.942Z,1.50
2022-08-22T10:19:49.333Z,1.38
2022-08-22T10:22:15.636Z,2.55
2022-08-22T10:24:43.823Z,1.50
2022-08-22T10:27:10.784Z,1.42
2022-08-22T10:29:37.171Z,1.70
2022-08-22T10:32:07.749Z,1.60
2022-08-22T10:34:40.809Z,1.98
2022-08-22T10:37:08.552Z,1.73
2022-08-22T10:39:36.595Z,1.80
2022-08-22T10:42:02.949Z,2.17
2022-08-22T10:44:29.391Z,1.65
2022-08-22T10:46:56.234Z,1.97
2022-08-22T10:49:28.295Z,2.45
2022-08-22T10:51:55.719Z,1.80
2022-08-22T10:54:24.736Z,1.88
2022-08-22T10:56:51.074Z,2.20
2022-08-22T11:01:51.451Z,1.90
2022-08-22T11:04:17.838Z,1.90
2022-08-22T11:06:44.802Z,1.75
2022-08-22T11:09:12.159Z,1.75
2022-08-22T11:11:38.480Z,1.73
2022-08-22T11:14:05.275Z,2.20
2022-08-22T11:16:31.568Z,1.95
2022-08-22T11:19:15.002Z,1.95
2022-08-22T11:21:41.995Z,2.70
2022-08-22T11:24:08.290Z,1.90
2022-08-22T11:26:47.043Z,1.85
2022-08-22T11:29:14.435Z,2.15
2022-08-22T11:31:47.249Z,1.47
2022-08-22T11:34:17.727Z,1.88
2022-08-22T11:36:46.930Z,1.90
2022-08-22T11:39:18.239Z,1.73
2022-08-22T11:41:45.086Z,1.90
2022-08-22T11:44:19.072Z,1.88
2022-08-22T11:46:45.362Z,1.80
2022-08-22T11:49:12.986Z,1.50
2022-08-22T11:51:39.297Z,1.90
2022-08-22T11:54:05.625Z,1.67
2022-08-22T11:56:32.202Z,1.80
2022-08-22T11:58:58.542Z,2.55
2022-08-22T12:01:24.852Z,1.80
2022-08-22T12:03:58.202Z,1.80
2022-08-22T12:06:24.822Z,1.85
2022-08-22T12:08:51.128Z,2.30
2022-08-22T12:11:17.425Z,2.03
2022-08-22T12:13:43.735Z,2.47
2022-08-22T12:16:10.045Z,1.80
2022-08-22T12:18:36.362Z,1.65
2022-08-22T12:21:02.673Z,2.00
2022-08-22T12:23:43.160Z,1.90
2022-08-22T12:26:14.912Z,1.30
2022-08-22T12:28:41.267Z,1.83
2022-08-22T12:31:07.570Z,1.70
2022-08-22T12:33:34.716Z,1.80
2022-08-22T12:36:01.015Z,1.85
2022-08-22T12:38:29.045Z,1.80
2022-08-22T12:40:55.858Z,1.88
2022-08-22T12:43:22.801Z,1.80
2022-08-22T12:45:50.709Z,2.03
2022-08-22T12:48:17.304Z,1.88
2022-08-22T12:50:43.702Z,1.77
2022-08-22T12:53:11.042Z,1.60
2022-08-22T12:58:06.842Z,1.40
2022-08-22T13:00:34.817Z,1.70
2022-08-22T13:03:01.759Z,1.38
2022-08-22T13:05:28.185Z,1.75
2022-08-22T13:07:54.560Z,1.45
2022-08-22T13:10:20.953Z,1.20
2022-08-22T13:12:47.256Z,1.50
2022-08-22T13:15:13.989Z,1.30
2022-08-22T13:17:40.479Z,1.35
2022-08-22T13:20:09.600Z,1.25
2022-08-22T13:22:36.262Z,2.20
2022-08-22T13:25:05.351Z,1.77
2022-08-22T13:27:34.852Z,1.40
2022-08-22T13:30:01.161Z,1.60
2022-08-22T13:32:27.757Z,1.60
2022-08-22T13:34:54.462Z,1.50
2022-08-22T13:37:24.642Z,1.58
2022-08-22T13:39:52.635Z,1.70
2022-08-22T13:44:56.972Z,1.67
2022-08-22T13:47:24.038Z,1.75
2022-08-22T13:49:50.876Z,1.52
2022-08-22T13:52:29.227Z,2.83
2022-08-22T13:54:56.618Z,1.45
2022-08-22T13:57:23.847Z,1.45
2022-08-22T13:59:53.750Z,1.67
2022-08-22T14:02:22.472Z,1.30
2022-08-22T14:04:48.813Z,1.60
2022-08-22T14:07:15.157Z,1.52
2022-08-22T14:09:41.501Z,1.40
2022-08-22T14:12:08.235Z,1.38
2022-08-22T14:14:38.635Z,1.70
2022-08-22T14:17:04.984Z,1.35
2022-08-22T14:19:31.296Z,1.88
2022-08-22T14:22:04.870Z,2.22
2022-08-22T14:24:31.187Z,1.23
2022-08-22T14:26:57.982Z,1.40
2022-08-22T14:29:24.375Z,1.63
2022-08-22T14:31:50.694Z,1.80
2022-08-22T14:34:17.777Z,1.65
2022-08-22T14:36:45.668Z,1.65
2022-08-22T14:39:12.024Z,1.35
2022-08-22T14:41:52.363Z,1.65
2022-08-22T14:44:23.486Z,1.40
2022-08-22T14:46:51.116Z,1.52
2022-08-22T14:49:18.270Z,1.88
2022-08-22T14:51:44.620Z,2.03
2022-08-22T14:54:13.982Z,1.90
2022-08-22T14:56:40.854Z,2.05
2022-08-22T14:59:07.764Z,2.30
2022-08-22T15:01:34.112Z,1.70
2022-08-22T15:04:03.667Z,1.80
2022-08-22T15:06:30.043Z,1.90
2022-08-22T15:08:56.922Z,2.10
2022-08-22T15:11:25.113Z,2.08
2022-08-22T15:13:51.945Z,2.30
2022-08-22T15:16:18.239Z,2.10
2022-08-22T15:18:51.840Z,2.10
2022-08-22T15:21:21.025Z,1.98
2022-08-22T15:23:50.892Z,2.38
2022-08-22T15:26:17.327Z,2.10
2022-08-22T15:28:52.895Z,2.17
2022-08-22T15:31:19.772Z,1.67
2022-08-22T15:33:46.274Z,1.70
2022-08-22T15:36:12.589Z,1.88
2022-08-22T15:38:42.287Z,1.60
2022-08-22T15:41:14.520Z,2.10
2022-08-22T15:43:41.388Z,2.00
2022-08-22T15:46:09.966Z,1.52
2022-08-22T15:48:49.174Z,1.60
2022-08-22T15:51:18.731Z,1.85
2022-08-22T15:53:48.079Z,1.38
2022-08-22T15:56:17.380Z,1.88
2022-08-22T15:58:48.708Z,1.33
2022-08-22T16:01:19.636Z,1.77
2022-08-22T16:03:46.547Z,1.40
2022-08-22T16:06:12.842Z,1.60
2022-08-22T16:08:39.135Z,1.35
2022-08-22T16:11:05.464Z,1.45
2022-08-22T16:13:32.179Z,1.15
2022-08-22T16:15:58.505Z,2.13
2022-08-22T16:18:24.807Z,1.50
2022-08-22T16:20:51.092Z,1.30
2022-08-22T16:23:17.414Z,1.98
2022-08-22T16:25:43.711Z,1.20
2022-08-22T16:28:10.159Z,1.25
2022-08-22T16:30:36.454Z,1.20
2022-08-22T16:33:02.832Z,1.55
2022-08-22T16:35:29.123Z,1.10
2022-08-22T16:37:55.414Z,1.42
2022-08-22T16:40:21.754Z,1.33
2022-08-22T16:42:48.118Z,1.30
2022-08-22T16:45:14.443Z,1.42
2022-08-22T16:47:41.342Z,1.63
2022-08-22T16:50:08.970Z,1.30
2022-08-22T16:52:35.268Z,1.85
2022-08-22T16:55:01.567Z,1.90
2022-08-22T16:57:27.864Z,1.08
2022-08-22T16:59:54.526Z,1.67
2022-08-22T17:02:20.826Z,1.30
2022-08-22T17:04:47.139Z,1.40
2022-08-22T17:07:13.425Z,1.25
2022-08-22T17:09:40.128Z,1.50
2022-08-22T17:12:06.443Z,1.10
2022-08-22T17:14:32.753Z,1.13
2022-08-22T17:16:59.820Z,1.60
2022-08-22T17:19:26.122Z,1.33
2022-08-22T17:21:53.751Z,1.55
2022-08-22T17:24:32.193Z,1.30
2022-08-22T17:27:00.447Z,1.45
2022-08-22T17:29:26.746Z,1.38
2022-08-22T17:31:53.033Z,1.63
2022-08-22T17:34:19.343Z,1.52
2022-08-22T17:36:45.647Z,1.98
2022-08-22T17:39:12.438Z,1.60
2022-08-22T17:41:38.902Z,1.60
2022-08-22T17:44:05.410Z,2.25
2022-08-22T17:46:31.782Z,1.33
2022-08-22T17:48:58.083Z,1.98
2022-08-22T17:51:28.483Z,1.33
2022-08-22T17:53:55.255Z,2.55
2022-08-22T17:56:21.573Z,1.58
2022-08-22T17:58:47.863Z,1.38
2022-08-22T18:01:14.579Z,2.63
2022-08-22T18:03:40.933Z,1.60
2022-08-22T18:06:07.232Z,1.42
2022-08-22T18:11:19.944Z,2.80
2022-08-22T18:13:46.235Z,1.70
2022-08-22T18:16:12.526Z,1.85
2022-08-22T18:18:38.885Z,1.95
2022-08-22T18:21:06.331Z,1.85
2022-08-22T18:23:36.239Z,1.52
2022-08-22T18:26:06.791Z,1.55
2022-08-22T18:28:33.083Z,1.60
2022-08-22T18:30:59.499Z,1.90
2022-08-22T18:33:25.805Z,1.52
2022-08-22T18:35:54.749Z,1.80
2022-08-22T18:38:21.071Z,2.00
2022-08-22T18:40:49.873Z,1.80
2022-08-22T18:43:17.701Z,1.63
2022-08-22T18:45:44.644Z,1.48
2022-08-22T18:48:11.155Z,1.63
2022-08-22T18:50:37.456Z,1.88
2022-08-22T18:53:03.769Z,1.80
2022-08-22T18:55:30.919Z,1.83
2022-08-22T18:57:57.311Z,2.08
2022-08-22T19:00:23.661Z,1.52
2022-08-22T19:02:55.920Z,1.80
2022-08-22T19:05:22.523Z,1.70
2022-08-22T19:07:49.716Z,1.73
2022-08-22T19:10:16.019Z,2.05
2022-08-22T19:12:42.448Z,2.10
2022-08-22T19:15:09.048Z,1.77
2022-08-22T19:17:35.352Z,1.80
2022-08-22T19:20:20.107Z,2.10
2022-08-22T19:22:51.215Z,2.20
2022-08-22T19:25:18.058Z,2.22
2022-08-22T19:27:44.699Z,1.77
2022-08-22T19:30:11.412Z,2.40
2022-08-22T19:32:38.125Z,2.10
2022-08-22T19:35:05.047Z,2.10
2022-08-22T19:37:33.507Z,1.60
2022-08-22T19:40:00.440Z,1.80
2022-08-22T19:42:27.206Z,1.92
2022-08-22T19:44:53.502Z,1.70
2022-08-22T19:47:26.783Z,1.65
2022-08-22T19:49:53.871Z,2.03
2022-08-22T19:52:20.205Z,1.52
2022-08-22T19:54:46.503Z,1.65
2022-08-22T19:57:13.563Z,1.73
2022-08-22T19:59:39.791Z,1.50
2022-08-22T20:02:16.675Z,1.67
2022-08-22T20:04:42.972Z,2.50
2022-08-22T20:07:14.826Z,1.80
2022-08-22T20:09:41.566Z,2.15
2022-08-22T20:12:09.231Z,1.70
2022-08-22T20:14:39.644Z,2.40
2022-08-22T20:17:05.980Z,2.38
2022-08-22T20:19:32.279Z,2.25
2022-08-22T20:21:58.826Z,2.05
2022-08-22T20:24:25.125Z,1.90
2022-08-22T20:27:12.877Z,2.20
2022-08-22T20:29:38.363Z,2.10
2022-08-22T20:32:04.595Z,2.03
2022-08-22T20:34:30.925Z,2.40
2022-08-22T20:37:22.728Z,2.42
2022-08-22T20:39:44.319Z,2.67
2022-08-22T20:42:10.646Z,2.33
2022-08-22T20:44:37.592Z,2.63
2022-08-22T20:47:06.401Z,2.83
2022-08-22T20:49:32.759Z,3.05
2022-08-22T20:51:59.281Z,2.25
2022-08-22T20:54:25.632Z,2.30
2022-08-22T20:56:53.114Z,2.80
2022-08-22T20:59:20.270Z,3.10
2022-08-22T21:01:46.563Z,2.90
2022-08-22T21:04:12.954Z,2.17
2022-08-22T21:06:39.312Z,3.58
2022-08-22T21:09:25.576Z,2.78
2022-08-22T21:11:51.951Z,2.60
2022-08-22T21:14:18.348Z,3.25
2022-08-22T21:16:44.647Z,2.75
2022-08-22T21:19:10.936Z,3.05
2022-08-22T21:21:37.249Z,3.20
2022-08-22T21:24:03.559Z,3.63
2022-08-22T21:26:29.878Z,3.05
2022-08-22T21:28:56.178Z,3.00
2022-08-22T21:31:22.499Z,3.92
2022-08-22T21:33:48.803Z,2.80
2022-08-22T21:36:15.124Z,2.83
2022-08-22T21:38:41.416Z,3.10
2022-08-22T21:41:07.887Z,4.30
2022-08-22T21:43:34.426Z,3.20
2022-08-22T21:46:00.722Z,3.03
2022-08-22T21:48:27.013Z,3.05
2022-08-22T21:50:53.673Z,3.10
2022-08-22T21:53:19.977Z,2.97
2022-08-22T21:55:47.887Z,3.25
2022-08-22T22:01:00.489Z,3.05
2022-08-22T22:03:26.942Z,2.53
2022-08-22T22:05:54.735Z,2.38
2022-08-22T22:08:21.088Z,2.90
2022-08-22T22:10:47.395Z,2.38
2022-08-22T22:13:13.790Z,2.70
2022-08-22T22:15:40.078Z,3.47
2022-08-22T22:18:06.526Z,3.35
2022-08-22T22:20:32.849Z,3.10
2022-08-22T22:22:59.155Z,3.20
2022-08-22T22:25:40.346Z,2.80
2022-08-22T22:28:08.325Z,3.25
2022-08-22T22:30:34.683Z,3.03
2022-08-22T22:33:00.994Z,3.20
2022-08-22T22:35:27.297Z,3.00
2022-08-22T22:37:53.647Z,3.30
2022-08-22T22:40:20.044Z,3.00
2022-08-22T22:42:46.401Z,3.20
2022-08-22T22:45:12.686Z,3.55
2022-08-22T22:47:39.014Z,4.32
2022-08-22T22:50:05.515Z,3.45
2022-08-22T22:52:31.811Z,3.38
2022-08-22T22:54:58.350Z,3.13
2022-08-22T22:57:25.580Z,3.97
2022-08-22T22:59:52.093Z,3.25
2022-08-22T23:02:18.643Z,3.85
2022-08-22T23:04:44.962Z,3.35
2022-08-22T23:07:11.263Z,3.50
2022-08-22T23:09:38.621Z,3.72
2022-08-22T23:12:10.936Z,3.83
2022-08-22T23:14:37.224Z,3.50
2022-08-22T23:17:03.526Z,3.78
2022-08-22T23:19:29.803Z,3.50
2022-08-22T23:21:56.095Z,3.90
2022-08-22T23:24:22.378Z,3.25
2022-08-22T23:26:48.670Z,3.40
2022-08-22T23:29:15.130Z,3.72
2022-08-22T23:31:41.418Z,3.75
2022-08-22T23:34:07.703Z,3.95
2022-08-22T23:36:33.995Z,3.40
2022-08-22T23:39:00.328Z,3.80
2022-08-22T23:41:26.623Z,3.53
2022-08-22T23:43:52.954Z,3.83
2022-08-22T23:46:19.280Z,3.35
2022-08-22T23:48:45.589Z,3.95
2022-08-22T23:51:11.895Z,3.78
2022-08-22T23:53:38.207Z,3.53
2022-08-22T23:56:04.647Z,4.07
2022-08-22T23:58:35.116Z,3.80
